Time;durP1;ratioP1;P1;durP2;ratioP2;P2;SDS_P1;SDS_P2;PMS_P1;PMS_P2;Temp;Humidity;BMP_temperature;BMP_pressure;BME280_temperature;BME280_humidity;BME280_pressure;Samples;Min_cycle;Max_cycle;Signal;HPM_P1;HPM_P2
2022/11/06 00:00:44;;;;;;;2.30;1.20;;;;;;;9.93;100.00;99833.06;6348813;28;20096;-74
2022/11/06 00:03:47;;;;;;;0.68;0.60;;;;;;;9.87;100.00;99839.47;6367892;27;20039;-75
2022/11/06 00:06:47;;;;;;;1.45;0.85;;;;;;;9.90;100.00;99835.84;6335400;27;20043;-74
2022/11/06 00:09:48;;;;;;;0.90;0.80;;;;;;;9.89;100.00;99831.56;6374317;27;20043;-74
2022/11/06 00:12:49;;;;;;;1.35;1.02;;;;;;;9.87;100.00;99831.66;6358989;27;20078;-75
2022/11/06 00:15:50;;;;;;;2.05;1.23;;;;;;;9.70;100.00;99829.25;6348492;28;20062;-75
2022/11/06 00:18:51;;;;;;;1.33;1.08;;;;;;;9.74;100.00;99828.16;6371191;27;20099;-74
2022/11/06 00:21:52;;;;;;;1.17;0.83;;;;;;;9.73;100.00;99828.22;6375063;27;20383;-75
2022/11/06 00:24:55;;;;;;;2.42;1.08;;;;;;;9.73;100.00;99812.59;6373847;27;20167;-74
2022/11/06 00:27:56;;;;;;;1.30;1.17;;;;;;;9.70;100.00;99821.44;6373871;27;20414;-75
2022/11/06 00:31:08;;;;;;;0.80;0.77;;;;;;;9.71;100.00;99812.69;6375035;27;20040;-75
2022/11/06 00:34:09;;;;;;;1.38;0.95;;;;;;;9.73;100.00;99816.03;6373792;27;20355;-75
2022/11/06 00:37:10;;;;;;;1.10;1.00;;;;;;;9.80;100.00;99816.50;6373701;27;20039;-74
2022/11/06 00:40:12;;;;;;;1.08;0.90;;;;;;;9.74;100.00;99817.72;6374624;27;20123;-74
2022/11/06 00:43:13;;;;;;;1.27;0.95;;;;;;;9.71;100.00;99815.28;6374558;27;20045;-74
2022/11/06 00:46:14;;;;;;;0.60;0.60;;;;;;;9.64;100.00;99812.22;6373183;27;20051;-74
2022/11/06 00:49:17;;;;;;;1.38;1.15;;;;;;;9.69;100.00;99809.34;6374550;27;20049;-75
2022/11/06 00:52:18;;;;;;;1.13;0.93;;;;;;;9.67;100.00;99814.63;6374248;27;20059;-75
2022/11/06 00:55:21;;;;;;;1.20;0.82;;;;;;;9.63;100.00;99818.34;6374882;27;20096;-74
2022/11/06 00:58:22;;;;;;;0.95;0.80;;;;;;;9.63;100.00;99820.97;6374263;27;20039;-74
2022/11/06 01:01:26;;;;;;;0.80;0.80;;;;;;;9.66;100.00;99827.78;6372719;27;20513;-74
2022/11/06 01:04:26;;;;;;;2.83;1.15;;;;;;;9.64;100.00;99822.66;6372690;27;20051;-74
2022/11/06 01:07:27;;;;;;;1.02;0.70;;;;;;;9.65;100.00;99826.91;6372699;27;20070;-74
2022/11/06 01:10:32;;;;;;;1.60;1.00;;;;;;;9.53;100.00;99819.84;6372699;27;20411;-74
2022/11/06 01:13:32;;;;;;;1.13;0.80;;;;;;;9.54;100.00;99818.09;6355290;27;20071;-74
2022/11/06 01:16:33;;;;;;;0.93;0.80;;;;;;;9.59;100.00;99821.25;6373996;27;20401;-78
2022/11/06 01:19:34;;;;;;;0.73;0.60;;;;;;;9.60;100.00;99822.94;6375567;27;20043;-78
2022/11/06 01:22:38;;;;;;;0.98;0.73;;;;;;;9.53;100.00;99824.22;6375424;27;20043;-78
2022/11/06 01:25:38;;;;;;;1.20;1.02;;;;;;;9.60;100.00;99830.75;6374183;27;20043;-78
2022/11/06 01:28:40;;;;;;;0.85;0.70;;;;;;;9.53;100.00;99821.63;6356967;27;20476;-78
2022/11/06 01:31:41;;;;;;;1.25;0.98;;;;;;;9.51;100.00;99823.47;6374057;27;20045;-78
2022/11/06 01:34:42;;;;;;;1.42;1.02;;;;;;;9.59;100.00;99832.50;6374861;27;20165;-79
2022/11/06 01:37:43;;;;;;;1.63;0.95;;;;;;;9.60;100.00;99838.56;6375227;27;20043;-78
2022/11/06 01:40:46;;;;;;;0.93;0.77;;;;;;;9.56;100.00;99844.88;6373721;27;20043;-78
2022/11/06 01:43:57;;;;;;;1.15;0.93;;;;;;;9.57;100.00;99842.16;6373743;27;20044;-78
2022/11/06 01:46:59;;;;;;;0.82;0.82;;;;;;;9.65;100.00;99842.53;6373893;27;20049;-78
2022/11/06 01:50:06;;;;;;;1.40;0.98;;;;;;;9.52;100.00;99843.41;6374512;27;20395;-75
2022/11/06 01:53:07;;;;;;;0.70;0.70;;;;;;;9.51;100.00;99842.53;6372040;27;20203;-79
2022/11/06 01:56:11;;;;;;;1.13;0.80;;;;;;;9.54;100.00;99849.34;6374726;27;20039;-79
2022/11/06 01:59:17;;;;;;;1.92;1.33;;;;;;;9.54;100.00;99850.19;6374622;27;20092;-78
2022/11/06 02:02:18;;;;;;;0.82;0.68;;;;;;;9.53;100.00;99852.88;6374596;27;20035;-78
2022/11/06 02:05:19;;;;;;;2.03;0.90;;;;;;;9.53;100.00;99842.44;6373507;27;20066;-78
2022/11/06 02:08:22;;;;;;;1.77;1.02;;;;;;;9.50;100.00;99845.25;6356011;27;20115;-78
2022/11/06 02:11:22;;;;;;;1.30;1.00;;;;;;;9.38;100.00;99842.44;6374568;27;20035;-78
2022/11/06 02:14:47;;;;;;;1.42;0.90;;;;;;;9.48;100.00;99863.56;6373179;27;20481;-78
2022/11/06 02:18:26;;;;;;;1.15;0.90;;;;;;;9.42;100.00;99864.75;6374328;27;20047;-77
2022/11/06 02:21:45;;;;;;;1.55;1.10;;;;;;;9.46;100.00;99861.06;6358750;27;20139;-78
2022/11/06 02:25:12;;;;;;;0.50;0.50;;;;;;;9.41;100.00;99854.44;6373265;27;20050;-74
2022/11/06 02:28:38;;;;;;;1.05;0.85;;;;;;;9.41;100.00;99863.09;6373927;27;20405;-74
2022/11/06 02:31:42;;;;;;;1.40;1.10;;;;;;;9.43;100.00;99850.84;6373149;27;20050;-74
2022/11/06 02:34:45;;;;;;;1.23;1.13;;;;;;;9.40;100.00;99863.19;6371479;27;20062;-73
2022/11/06 02:37:48;;;;;;;1.15;0.90;;;;;;;9.38;100.00;99863.28;6371765;27;20509;-74
2022/11/06 02:40:54;;;;;;;1.50;1.10;;;;;;;9.31;100.00;99859.38;6373183;27;20043;-78
2022/11/06 02:43:56;;;;;;;1.25;1.10;;;;;;;9.37;100.00;99860.75;6354903;28;20859;-73
2022/11/06 02:47:04;;;;;;;1.17;1.07;;;;;;;9.26;100.00;99861.38;6373595;27;20050;-78
2022/11/06 02:50:21;;;;;;;0.85;0.82;;;;;;;9.27;100.00;99878.69;6355887;28;20058;-78
2022/11/06 02:53:25;;;;;;;1.00;0.90;;;;;;;9.34;100.00;99873.97;6372978;27;20055;-74
2022/11/06 02:56:30;;;;;;;1.48;1.17;;;;;;;9.37;100.00;99878.97;6373365;27;20035;-74
2022/11/06 02:59:44;;;;;;;2.28;1.05;;;;;;;9.34;100.00;99876.56;6372713;27;20531;-74
2022/11/06 03:02:47;;;;;;;1.67;0.93;;;;;;;9.32;100.00;99876.66;6372069;27;20066;-78
2022/11/06 03:06:10;;;;;;;1.58;0.75;;;;;;;9.30;100.00;99881.09;6376659;27;20444;-74
2022/11/06 03:09:21;;;;;;;1.55;1.05;;;;;;;9.27;100.00;99892.56;6378002;27;20118;-74
2022/11/06 03:12:29;;;;;;;1.98;1.10;;;;;;;9.38;100.00;99878.91;6376978;27;20057;-78
2022/11/06 03:15:51;;;;;;;1.52;0.93;;;;;;;9.41;100.00;99891.75;6377361;27;20043;-78
2022/11/06 03:19:10;;;;;;;1.88;1.00;;;;;;;9.39;100.00;99887.53;6378571;27;20046;-78
2022/11/06 03:22:19;;;;;;;0.82;0.80;;;;;;;9.40;100.00;99884.84;6377283;27;20126;-74
2022/11/06 03:25:30;;;;;;;3.90;1.10;;;;;;;9.43;100.00;99879.47;6377307;27;20428;-78
2022/11/06 03:28:34;;;;;;;3.45;1.40;;;;;;;9.41;100.00;99885.69;6378194;27;20036;-78
2022/11/06 03:31:54;;;;;;;1.10;0.82;;;;;;;9.44;100.00;99895.94;6377422;27;20486;-73
2022/11/06 03:35:05;;;;;;;1.08;0.82;;;;;;;9.46;100.00;99896.69;6378014;27;20039;-74
2022/11/06 03:38:16;;;;;;;1.27;1.08;;;;;;;9.40;100.00;99887.44;6377348;27;20092;-78
2022/11/06 03:41:29;;;;;;;1.17;0.93;;;;;;;9.35;100.00;99905.13;6377439;27;20474;-74
2022/11/06 03:44:32;;;;;;;1.33;0.90;;;;;;;9.29;100.00;99910.69;6376575;27;20436;-78
2022/11/06 03:47:52;;;;;;;0.80;0.80;;;;;;;9.37;100.00;99915.44;6376367;27;20047;-73
2022/11/06 03:50:59;;;;;;;1.10;1.00;;;;;;;9.32;100.00;99915.72;6376706;27;20050;-74
2022/11/06 03:54:12;;;;;;;1.85;0.85;;;;;;;9.36;100.00;99916.38;6376552;27;20414;-74
2022/11/06 03:57:34;;;;;;;1.75;1.17;;;;;;;9.40;100.00;99910.91;6376377;27;20372;-74
2022/11/06 04:00:37;;;;;;;2.70;1.20;;;;;;;9.34;100.00;99920.84;6376402;27;20471;-74
2022/11/06 04:03:50;;;;;;;3.22;1.60;;;;;;;9.27;100.00;99915.97;6376404;27;20092;-74
2022/11/06 04:06:56;;;;;;;2.15;1.25;;;;;;;9.31;100.00;99918.41;6376278;27;20060;-73
2022/11/06 04:16:50;;;;;;;0.90;0.90;;;;;;;9.28;100.00;99922.03;6376888;27;20466;-78
2022/11/06 04:19:56;;;;;;;2.08;1.20;;;;;;;9.36;100.00;99919.81;6375977;27;20039;-78
2022/11/06 04:23:24;;;;;;;1.92;1.42;;;;;;;9.39;100.00;99922.25;6377716;27;20035;-78
2022/11/06 04:26:38;;;;;;;2.63;1.23;;;;;;;9.27;100.00;99917.75;6375840;27;20035;-77
2022/11/06 04:29:41;;;;;;;2.13;1.65;;;;;;;9.25;100.00;99917.84;6376437;27;20466;-73
2022/11/06 04:32:44;;;;;;;1.17;1.08;;;;;;;9.23;100.00;99913.66;6376413;27;20114;-78
2022/11/06 04:36:05;;;;;;;1.85;1.35;;;;;;;9.25;100.00;99920.44;6376714;27;20043;-78
2022/11/06 04:39:41;;;;;;;1.40;1.20;;;;;;;9.30;100.00;99929.75;6374569;27;20043;-78
2022/11/06 04:42:41;;;;;;;1.75;1.20;;;;;;;9.23;100.00;99934.47;6364334;27;20047;-77
2022/11/06 04:45:48;;;;;;;1.80;1.27;;;;;;;9.31;100.00;99921.00;6376455;27;20035;-77
2022/11/06 04:48:49;;;;;;;2.78;1.60;;;;;;;9.33;100.00;99921.75;6374330;27;20055;-73
2022/11/06 04:51:51;;;;;;;2.40;1.47;;;;;;;9.25;100.00;99919.59;6373308;27;20071;-73
2022/11/06 04:54:57;;;;;;;1.77;1.42;;;;;;;9.34;100.00;99926.03;6374514;27;20064;-73
2022/11/06 04:57:58;;;;;;;1.17;0.98;;;;;;;9.36;100.00;99934.59;6375211;27;20050;-73
2022/11/06 05:00:59;;;;;;;1.38;1.20;;;;;;;9.33;100.00;99932.16;6373993;27;20046;-74
2022/11/06 05:03:59;;;;;;;1.30;1.20;;;;;;;9.30;100.00;99930.59;6375101;27;20039;-73
2022/11/06 05:07:00;;;;;;;1.58;1.27;;;;;;;9.22;100.00;99936.22;6356363;27;20459;-74
2022/11/06 05:10:01;;;;;;;11.80;1.88;;;;;;;9.31;100.00;99934.88;6375013;27;20043;-74
2022/11/06 05:13:04;;;;;;;1.70;1.23;;;;;;;9.26;100.00;99937.72;6374678;27;20066;-75
2022/11/06 05:16:06;;;;;;;2.05;1.30;;;;;;;9.31;100.00;99945.28;6374885;27;20131;-74
2022/11/06 05:19:06;;;;;;;1.40;1.10;;;;;;;9.32;100.00;99940.91;6373456;27;20044;-73
2022/11/06 05:25:31;;;;;;;1.40;1.15;;;;;;;9.36;100.00;99951.06;6374079;27;20063;-74
2022/11/06 05:28:33;;;;;;;2.83;1.70;;;;;;;9.41;100.00;99964.66;6355409;27;20123;-75
2022/11/06 05:31:33;;;;;;;1.85;1.45;;;;;;;9.40;100.00;99970.78;6374298;27;20039;-74
2022/11/06 05:34:45;;;;;;;1.67;1.20;;;;;;;9.40;100.00;99968.19;6374081;27;20039;-74
2022/11/06 05:37:46;;;;;;;1.92;1.52;;;;;;;9.40;100.00;99980.38;6372971;27;20055;-75
2022/11/06 05:40:47;;;;;;;1.55;1.38;;;;;;;9.44;100.00;99974.06;6358265;27;20097;-74
2022/11/06 05:43:47;;;;;;;2.72;1.83;;;;;;;9.40;100.00;99970.78;6373367;27;20055;-74
2022/11/06 05:46:48;;;;;;;3.55;1.85;;;;;;;9.40;100.00;99978.59;6353453;27;20039;-73
2022/11/06 05:49:49;;;;;;;2.90;1.60;;;;;;;9.39;100.00;99973.47;6348209;28;20048;-74
2022/11/06 05:52:49;;;;;;;2.22;1.55;;;;;;;9.35;100.00;99977.19;6370253;27;20048;-73
2022/11/06 05:55:50;;;;;;;2.60;1.83;;;;;;;9.46;100.00;99980.03;6371493;27;20049;-74
2022/11/06 05:58:53;;;;;;;3.35;2.10;;;;;;;9.48;100.00;99985.97;6372951;27;20129;-74
2022/11/06 06:01:55;;;;;;;3.60;2.10;;;;;;;9.55;100.00;99991.66;6371457;27;20077;-74
2022/11/06 06:04:56;;;;;;;2.87;1.67;;;;;;;9.45;100.00;99991.34;6372585;27;20042;-74
2022/11/06 06:07:56;;;;;;;2.92;1.88;;;;;;;9.58;100.00;99988.91;6371262;27;20043;-75
2022/11/06 06:10:57;;;;;;;4.90;2.80;;;;;;;9.55;100.00;99992.50;6371753;27;20050;-74
2022/11/06 06:13:59;;;;;;;7.40;4.28;;;;;;;9.62;100.00;99986.03;6366312;27;20051;-73
2022/11/06 06:16:59;;;;;;;5.15;3.33;;;;;;;9.61;100.00;99991.31;6359900;27;20406;-73
2022/11/06 06:20:00;;;;;;;1.88;1.70;;;;;;;9.64;100.00;99988.56;6368462;27;20134;-74
2022/11/06 06:23:01;;;;;;;1.65;1.33;;;;;;;9.80;100.00;99998.88;6369447;27;20049;-75
2022/11/06 06:26:03;;;;;;;3.30;2.50;;;;;;;9.78;100.00;100004.22;6371270;27;20047;-73
2022/11/06 06:29:04;;;;;;;7.03;3.22;;;;;;;9.77;100.00;100006.91;6354646;27;20051;-74
2022/11/06 06:32:05;;;;;;;7.30;2.25;;;;;;;9.83;100.00;100019.56;6363328;27;20039;-74
2022/11/06 06:35:06;;;;;;;5.57;3.03;;;;;;;9.92;100.00;100020.78;6347719;28;20467;-74
2022/11/06 06:38:07;;;;;;;2.95;1.83;;;;;;;9.86;100.00;100033.28;6347440;28;20040;-73
2022/11/06 06:41:08;;;;;;;2.65;1.70;;;;;;;9.92;100.00;100032.06;6346257;28;20067;-74
2022/11/06 06:44:09;;;;;;;4.65;2.40;;;;;;;10.01;100.00;100028.09;6347461;28;20044;-74
2022/11/06 06:47:09;;;;;;;1.65;1.40;;;;;;;10.00;100.00;100029.84;6368412;28;20367;-74
2022/11/06 06:50:15;;;;;;;3.30;1.52;;;;;;;10.16;100.00;100035.00;6368683;28;20384;-75
2022/11/06 06:53:16;;;;;;;1.85;1.40;;;;;;;10.01;100.00;100031.53;6345783;28;20055;-74
2022/11/06 06:56:16;;;;;;;2.28;1.85;;;;;;;10.18;100.00;100030.53;6345829;28;20055;-74
2022/11/06 06:59:19;;;;;;;4.28;2.25;;;;;;;10.23;100.00;100049.34;6347045;28;20040;-75
2022/11/06 07:02:20;;;;;;;3.63;2.10;;;;;;;10.22;100.00;100045.06;6347253;28;20040;-75
2022/11/06 07:05:24;;;;;;;3.38;2.10;;;;;;;10.24;100.00;100037.16;6363036;28;20035;-74
2022/11/06 07:08:25;;;;;;;3.80;2.08;;;;;;;10.28;100.00;100043.84;6372540;27;20039;-74
2022/11/06 07:11:26;;;;;;;3.85;2.60;;;;;;;10.32;100.00;100040.16;6372699;27;20125;-76
2022/11/06 07:14:29;;;;;;;2.78;1.83;;;;;;;10.18;100.00;100048.78;6360797;27;20411;-75
2022/11/06 07:17:30;;;;;;;4.22;2.05;;;;;;;10.30;100.00;100038.59;6370486;28;20539;-75
2022/11/06 07:20:32;;;;;;;6.73;2.20;;;;;;;10.27;100.00;100042.16;6353336;28;20071;-75
2022/11/06 07:23:36;;;;;;;3.03;2.07;;;;;;;10.30;100.00;100054.22;6353505;28;20047;-75
2022/11/06 07:26:36;;;;;;;3.83;1.88;;;;;;;10.39;100.00;100051.06;6370235;28;20650;-75
2022/11/06 07:29:38;;;;;;;2.92;1.90;;;;;;;10.42;100.00;100048.28;6370509;28;20035;-75
2022/11/06 07:32:38;;;;;;;3.83;2.40;;;;;;;10.26;100.00;100051.75;6371399;27;20082;-75
2022/11/06 07:35:43;;;;;;;3.95;2.20;;;;;;;10.42;100.00;100054.34;6371482;28;20065;-75
2022/11/06 07:38:43;;;;;;;6.80;2.83;;;;;;;10.46;100.00;100053.22;6352958;28;20051;-74
2022/11/06 07:41:44;;;;;;;2.92;2.15;;;;;;;10.37;100.00;100045.09;6352915;28;20418;-75
2022/11/06 07:44:47;;;;;;;3.80;2.45;;;;;;;10.48;100.00;100043.53;6353076;28;20525;-75
2022/11/06 07:47:48;;;;;;;3.17;2.05;;;;;;;10.59;100.00;100055.06;6370067;28;20040;-75
2022/11/06 07:50:49;;;;;;;3.75;2.10;;;;;;;10.53;100.00;100045.84;6374563;27;20050;-74
2022/11/06 07:53:50;;;;;;;7.05;2.72;;;;;;;10.66;100.00;100054.59;6375676;27;20065;-74
2022/11/06 07:56:50;;;;;;;3.20;2.20;;;;;;;10.62;100.00;100053.09;6375486;27;20039;-74
2022/11/06 07:59:51;;;;;;;5.60;2.53;;;;;;;10.82;100.00;100061.50;6358365;27;20058;-74
2022/11/06 08:02:55;;;;;;;5.85;2.78;;;;;;;10.86;100.00;100071.63;6375800;27;20042;-75
2022/11/06 08:06:01;;;;;;;2.88;1.92;;;;;;;10.82;100.00;100064.94;6375723;27;20066;-75
2022/11/06 08:09:06;;;;;;;4.30;2.47;;;;;;;10.94;100.00;100068.56;6374616;27;20038;-75
2022/11/06 08:12:07;;;;;;;3.63;2.33;;;;;;;10.90;100.00;100067.06;6373076;27;20052;-74
2022/11/06 08:15:09;;;;;;;3.55;2.30;;;;;;;10.95;100.00;100061.56;6352623;27;20040;-74
2022/11/06 08:18:12;;;;;;;2.65;1.90;;;;;;;10.94;100.00;100065.94;6349735;28;20074;-75
2022/11/06 08:21:13;;;;;;;5.30;2.40;;;;;;;11.02;100.00;100062.88;6360695;27;20031;-74
2022/11/06 08:24:14;;;;;;;4.97;2.80;;;;;;;11.03;100.00;100065.34;6395298;27;20067;-75
2022/11/06 08:27:14;;;;;;;3.10;2.30;;;;;;;11.17;100.00;100059.28;6355984;27;20047;-75
2022/11/06 08:30:15;;;;;;;2.88;1.98;;;;;;;11.22;100.00;100064.19;6361542;27;20066;-75
2022/11/06 08:33:16;;;;;;;4.57;2.45;;;;;;;11.04;100.00;100064.44;6351162;27;20077;-75
2022/11/06 08:36:22;;;;;;;5.20;2.97;;;;;;;11.22;100.00;100078.13;6355997;27;20088;-74
2022/11/06 08:39:22;;;;;;;10.88;3.72;;;;;;;11.26;100.00;100082.22;6348594;28;20040;-75
2022/11/06 08:42:23;;;;;;;3.63;2.50;;;;;;;11.40;100.00;100085.72;6349441;28;20124;-75
2022/11/06 08:45:24;;;;;;;4.53;2.30;;;;;;;11.40;100.00;100086.53;6355472;27;20066;-75
2022/11/06 08:48:25;;;;;;;4.55;2.28;;;;;;;11.44;100.00;100095.84;6375320;27;20547;-74
2022/11/06 08:51:26;;;;;;;3.03;1.90;;;;;;;11.49;100.00;100098.19;6375533;27;20100;-75
2022/11/06 08:54:27;;;;;;;4.13;2.33;;;;;;;11.58;100.00;100092.38;6375529;27;20055;-76
2022/11/06 08:57:28;;;;;;;6.15;2.20;;;;;;;11.68;100.00;100100.47;6356726;27;20059;-75
2022/11/06 09:00:32;;;;;;;2.42;1.75;;;;;;;11.67;100.00;100098.75;6366578;27;20543;-75
2022/11/06 09:03:32;;;;;;;4.63;2.38;;;;;;;11.95;100.00;100107.47;6348351;28;20044;-75
2022/11/06 09:06:33;;;;;;;2.55;1.83;;;;;;;12.10;100.00;100102.03;6348180;28;20051;-75
2022/11/06 09:09:36;;;;;;;2.95;2.08;;;;;;;12.13;100.00;100101.03;6349508;28;20046;-75
2022/11/06 09:12:37;;;;;;;4.82;1.88;;;;;;;12.22;100.00;100095.16;6348407;28;20212;-79
2022/11/06 09:15:38;;;;;;;3.90;1.95;;;;;;;12.17;100.00;100094.66;6350473;28;20463;-79
2022/11/06 09:18:39;;;;;;;3.35;2.08;;;;;;;12.06;100.00;100095.34;6348994;28;20051;-79
2022/11/06 09:21:39;;;;;;;3.20;2.08;;;;;;;12.15;100.00;100099.13;6331575;28;20054;-79
2022/11/06 09:24:40;;;;;;;3.67;2.00;;;;;;;12.17;100.00;100104.25;6348781;28;20035;-80
2022/11/06 09:32:08;;;;;;;2.83;1.80;;;;;;;12.17;100.00;100110.34;6375831;27;20039;-79
2022/11/06 09:35:09;;;;;;;2.25;1.67;;;;;;;12.24;100.00;100113.38;6374000;27;20050;-79
2022/11/06 09:38:11;;;;;;;2.33;1.50;;;;;;;12.34;100.00;100103.97;6375211;27;20050;-79
2022/11/06 09:41:48;;;;;;;3.05;1.80;;;;;;;12.14;100.00;100097.44;6356862;27;20065;-79
2022/11/06 09:45:10;;;;;;;2.78;1.60;;;;;;;12.10;100.00;100106.44;6375138;27;20118;-79
2022/11/06 09:48:20;;;;;;;4.07;2.30;;;;;;;12.38;100.00;100105.44;6373999;27;20463;-79
2022/11/06 09:51:47;;;;;;;2.47;1.73;;;;;;;12.55;100.00;100106.06;6375014;27;20275;-79
2022/11/06 09:54:53;;;;;;;3.22;1.70;;;;;;;12.65;100.00;100109.72;6345738;27;20451;-80
2022/11/06 09:57:58;;;;;;;3.45;2.00;;;;;;;12.89;100.00;100104.59;6374637;27;20039;-79
2022/11/06 10:01:12;;;;;;;2.47;2.00;;;;;;;13.22;100.00;100100.50;6373512;27;20043;-79
2022/11/06 10:04:50;;;;;;;1.88;1.73;;;;;;;13.86;96.19;100102.91;6374446;27;20058;-79
2022/11/06 10:07:55;;;;;;;5.28;2.42;;;;;;;14.09;90.79;100098.56;6341062;28;20142;-79
2022/11/06 10:11:14;;;;;;;2.30;1.70;;;;;;;14.43;90.24;100098.63;6330705;28;20066;-79
2022/11/06 10:14:17;;;;;;;2.47;1.60;;;;;;;14.42;87.43;100089.09;6348280;28;20092;-79
2022/11/06 10:17:36;;;;;;;4.82;1.92;;;;;;;14.64;86.40;100091.78;6347427;28;20055;-79
2022/11/06 10:20:58;;;;;;;3.10;2.03;;;;;;;14.68;87.97;100090.59;6346617;28;20048;-76
2022/11/06 10:24:12;;;;;;;2.67;1.95;;;;;;;14.97;83.81;100099.75;6345274;28;20115;-76
2022/11/06 10:27:21;;;;;;;4.45;2.10;;;;;;;15.12;83.07;100103.81;6352499;27;20051;-76
2022/11/06 10:30:22;;;;;;;3.28;2.40;;;;;;;15.28;82.02;100098.19;6371016;27;20043;-76
2022/11/06 10:33:44;;;;;;;8.05;2.20;;;;;;;15.33;80.86;100098.63;6371287;27;20073;-76
2022/11/06 10:36:54;;;;;;;2.47;1.40;;;;;;;15.47;82.12;100092.28;6372301;27;20039;-76
2022/11/06 10:39:57;;;;;;;2.90;1.77;;;;;;;15.32;79.48;100087.28;6353828;27;20301;-76
2022/11/06 10:43:05;;;;;;;2.38;1.70;;;;;;;15.51;78.85;100091.91;6370963;27;20126;-76
2022/11/06 10:46:33;;;;;;;4.80;2.15;;;;;;;15.52;82.32;100083.06;6372182;27;20388;-76
2022/11/06 10:49:38;;;;;;;2.97;1.83;;;;;;;15.78;81.54;100087.19;6345413;28;20044;-76
2022/11/06 10:53:12;;;;;;;3.25;1.75;;;;;;;16.06;76.61;100068.13;6362131;28;20048;-76
2022/11/06 10:56:56;;;;;;;4.88;2.60;;;;;;;16.16;77.43;100051.56;6328407;28;20052;-76
2022/11/06 11:04:23;;;;;;;5.05;1.80;;;;;;;15.72;79.71;100051.69;6348080;28;20479;-78
2022/11/06 11:07:28;;;;;;;4.13;1.88;;;;;;;15.56;81.19;100051.25;6388671;27;20058;-77
2022/11/06 11:10:32;;;;;;;3.33;1.67;;;;;;;15.58;78.93;100052.78;6373689;27;20039;-78
2022/11/06 11:13:33;;;;;;;2.03;1.60;;;;;;;15.75;78.39;100046.19;6372321;28;20047;-79
2022/11/06 11:16:38;;;;;;;2.67;1.83;;;;;;;15.37;78.80;100046.66;6372698;27;20087;-75
2022/11/06 11:19:43;;;;;;;2.50;1.77;;;;;;;15.44;82.36;100039.91;6370568;28;20043;-76
2022/11/06 11:22:44;;;;;;;2.30;1.63;;;;;;;15.29;81.10;100040.22;6368403;27;20380;-76
2022/11/06 11:25:54;;;;;;;7.40;2.92;;;;;;;15.18;82.17;100027.13;6349018;28;20047;-76
2022/11/06 11:28:57;;;;;;;3.50;1.73;;;;;;;14.95;85.09;100034.22;6351227;28;20047;-75
2022/11/06 11:32:04;;;;;;;3.78;2.17;;;;;;;14.79;85.33;100029.34;6351128;28;20035;-75
2022/11/06 11:35:09;;;;;;;3.47;1.92;;;;;;;14.87;85.66;100034.81;6349743;28;20134;-76
2022/11/06 11:38:13;;;;;;;2.45;1.92;;;;;;;14.66;87.39;100034.72;6352389;28;20044;-78
2022/11/06 11:41:21;;;;;;;4.07;2.13;;;;;;;14.70;86.80;100044.03;6351067;28;20062;-78
2022/11/06 11:44:24;;;;;;;5.28;2.25;;;;;;;14.84;86.90;100036.84;6334181;28;20047;-77
2022/11/06 11:47:27;;;;;;;6.43;2.83;;;;;;;14.56;87.89;100036.41;6385141;27;20164;-75
2022/11/06 11:50:31;;;;;;;3.33;2.10;;;;;;;14.63;88.69;100044.63;6349418;28;20059;-75
2022/11/06 11:53:32;;;;;;;3.72;2.25;;;;;;;15.02;86.08;100043.25;6332067;28;20415;-76
2022/11/06 11:56:43;;;;;;;4.93;2.22;;;;;;;15.41;82.48;100043.63;6366463;27;20124;-75
2022/11/06 11:59:48;;;;;;;4.05;1.90;;;;;;;15.41;81.48;100034.94;6349840;28;20035;-78
2022/11/06 12:02:57;;;;;;;3.88;2.53;;;;;;;15.65;80.69;100034.72;6351328;28;20070;-76
2022/11/06 12:06:10;;;;;;;5.93;2.42;;;;;;;15.95;82.93;100026.06;6349042;28;20400;-76
2022/11/06 12:09:12;;;;;;;3.67;2.55;;;;;;;15.95;79.73;100033.16;6383455;27;20079;-75
2022/11/06 12:12:43;;;;;;;2.45;1.90;;;;;;;15.66;78.46;100037.19;6332033;28;20047;-76
2022/11/06 12:15:48;;;;;;;3.47;2.45;;;;;;;15.57;80.42;100037.97;6359231;27;20047;-76
2022/11/06 12:18:54;;;;;;;4.22;2.63;;;;;;;15.52;80.94;100035.72;6375498;27;20047;-78
2022/11/06 12:22:04;;;;;;;4.80;2.88;;;;;;;15.58;80.01;100025.66;6394926;27;20043;-76
2022/11/06 12:25:18;;;;;;;5.75;2.42;;;;;;;15.54;80.78;100030.31;6390706;27;20039;-79
2022/11/06 12:28:22;;;;;;;3.70;2.30;;;;;;;15.73;81.05;100021.81;6362986;27;20162;-78
2022/11/06 12:31:54;;;;;;;4.50;2.40;;;;;;;15.53;81.37;100026.03;6350224;28;20043;-76
2022/11/06 12:35:22;;;;;;;3.53;2.40;;;;;;;15.76;81.61;100031.22;6362592;27;20120;-75
2022/11/06 12:38:31;;;;;;;4.07;2.50;;;;;;;15.58;80.70;100023.03;6367824;27;20062;-76
2022/11/06 12:41:37;;;;;;;2.83;2.05;;;;;;;15.59;82.37;100032.59;6339421;27;20058;-75
2022/11/06 12:44:41;;;;;;;6.15;3.28;;;;;;;15.74;81.81;100033.16;6362007;27;20066;-76
2022/11/06 12:47:56;;;;;;;4.78;2.40;;;;;;;15.66;81.58;100037.19;6350702;27;20544;-76
2022/11/06 12:51:06;;;;;;;5.82;3.00;;;;;;;15.69;82.77;100031.69;6372343;27;20073;-75
2022/11/06 12:54:31;;;;;;;6.15;2.85;;;;;;;15.64;80.58;100039.13;6372921;27;20561;-76
2022/11/06 12:57:39;;;;;;;3.95;2.70;;;;;;;15.54;81.76;100024.22;6373171;27;20047;-79
2022/11/06 13:01:05;;;;;;;3.88;2.40;;;;;;;15.57;84.36;100024.00;6376264;27;20114;-79
2022/11/06 13:04:20;;;;;;;3.50;2.30;;;;;;;15.32;84.39;100033.88;6373696;27;20051;-76
2022/11/06 13:07:44;;;;;;;5.15;2.63;;;;;;;15.00;84.72;100025.97;6354059;27;20054;-79
2022/11/06 13:11:07;;;;;;;5.90;2.88;;;;;;;15.12;84.34;100030.22;6335055;27;20051;-78
2022/11/06 13:14:40;;;;;;;5.53;2.63;;;;;;;14.93;86.94;100032.66;6374445;27;20418;-78
2022/11/06 13:18:05;;;;;;;4.43;2.78;;;;;;;14.90;86.29;100026.69;6375735;27;20043;-78
2022/11/06 13:21:22;;;;;;;5.43;2.17;;;;;;;15.23;86.18;100029.34;6373586;27;20039;-79
2022/11/06 13:24:26;;;;;;;2.75;2.05;;;;;;;15.06;86.42;100026.28;6373395;27;20137;-76
2022/11/06 13:27:42;;;;;;;2.92;2.45;;;;;;;15.05;86.68;100027.28;6372385;27;20475;-76
2022/11/06 13:30:46;;;;;;;3.92;2.58;;;;;;;15.03;86.92;100028.31;6349458;28;20046;-78
2022/11/06 13:33:49;;;;;;;3.28;2.33;;;;;;;15.02;87.35;100030.13;6331568;28;20044;-76
2022/11/06 13:36:53;;;;;;;3.92;2.67;;;;;;;14.98;86.62;100022.63;6346666;28;20074;-76
2022/11/06 13:40:05;;;;;;;3.20;2.42;;;;;;;15.08;88.20;100034.06;6349305;28;20040;-78
2022/11/06 13:43:12;;;;;;;3.83;2.40;;;;;;;14.97;88.05;100047.22;6349549;28;20044;-78
2022/11/06 13:46:41;;;;;;;3.30;2.30;;;;;;;14.97;87.87;100050.69;6365260;27;20058;-78
2022/11/06 13:50:04;;;;;;;4.38;2.42;;;;;;;14.97;87.89;100055.09;6363155;27;20051;-75
2022/11/06 13:53:23;;;;;;;8.02;2.65;;;;;;;14.69;87.78;100050.22;6381888;27;20059;-78
2022/11/06 13:56:45;;;;;;;5.03;2.60;;;;;;;14.69;89.29;100052.03;6348387;28;20491;-75
2022/11/06 14:00:02;;;;;;;8.10;3.15;;;;;;;14.80;88.53;100054.63;6346120;28;20047;-76
2022/11/06 14:03:35;;;;;;;6.05;2.83;;;;;;;14.73;88.75;100055.25;6346734;28;20419;-78
2022/11/06 14:06:38;;;;;;;5.43;2.90;;;;;;;14.53;90.31;100036.59;6348956;28;20047;-78
2022/11/06 14:09:44;;;;;;;4.65;2.72;;;;;;;14.53;91.69;100036.59;6349003;28;20049;-78
2022/11/06 14:12:48;;;;;;;7.35;2.65;;;;;;;14.57;90.98;100042.47;6347577;28;20475;-78
2022/11/06 14:15:59;;;;;;;4.97;2.88;;;;;;;14.45;92.22;100046.84;6365486;27;20093;-78
2022/11/06 14:19:12;;;;;;;4.78;2.70;;;;;;;14.36;93.06;100037.91;6373494;27;20132;-76
2022/11/06 14:22:28;;;;;;;4.28;2.20;;;;;;;14.29;93.75;100058.53;6372055;27;20109;-78
2022/11/06 14:25:41;;;;;;;3.53;2.50;;;;;;;14.07;96.45;100056.69;6346067;28;20036;-76
2022/11/06 14:28:43;;;;;;;6.78;2.45;;;;;;;13.90;96.97;100057.97;6330230;28;20051;-78
2022/11/06 14:32:05;;;;;;;8.63;3.60;;;;;;;13.86;97.79;100055.72;6359578;27;20054;-75
2022/11/06 14:35:29;;;;;;;15.85;5.40;;;;;;;13.86;98.46;100061.78;6360228;27;20043;-76
2022/11/06 14:38:33;;;;;;;12.68;5.30;;;;;;;13.82;98.38;100064.75;6338908;28;20048;-78
2022/11/06 14:41:34;;;;;;;10.50;6.13;;;;;;;13.72;100.00;100064.59;6346069;28;20055;-76
2022/11/06 14:44:42;;;;;;;41.40;19.13;;;;;;;13.60;100.00;100058.47;6329221;28;20044;-76
2022/11/06 14:47:49;;;;;;;17.65;8.68;;;;;;;13.66;100.00;100063.25;6345379;28;20117;-78
2022/11/06 14:50:50;;;;;;;25.52;13.93;;;;;;;13.59;100.00;100051.56;6345491;28;20063;-76